Portada
METAR-TAF:

METAR-TAF

Aeroports :

Almeria, Espanya

latitud: 36-51N, longitud: 002-23W, altitud: 15 m

Observació

L'informe es va fer fa 20 minuts, a les 21:00 UTC
Vent 10 kt del Oest, variant entre Oest/Sud-Oest i Nord-Oest
Temperatura 14°C
Humitat 38%
Pressió 1013 hPa
Visibilitat 10 km o més
Escasses núvols a una alçada de 6000 ft

METAR: LEAM 222100Z 28010KT 250V320 9999 FEW060 14/M00 Q1013

Hora: 22:20 (21:20 UTC)

Pronòstic

L'informe es va fer fa 1 hora i 20 minuts, a les 20:00 UTC
Pronòstic vàlid del 22 a les 21 UTC al 23 a les 21 UTC
Vent 10 kt del Nord-Oest
Visibilitat 10 km o més
Escasses núvols a una alçada de 3500 ft
Probabilitat 40% :
Temporalment
l' 22 a les 21 UTC al 23 a les 09 UTC
Vent 16 kt del Nord-Oest amb ràfegues de 28 kt
Evolucionant progressivament
l' 23 a les 09 UTC al 23 a les 12 UTC
Vent 8 kt del Sud-Oest

TAF: LEAM 222000Z 2221/2321 31010KT 9999 FEW035 TX18/2312Z TN09/2306Z PROB40 TEMPO 2221/2309 32016G28KT BECMG 2309/2312 22008KT

Observacions i pronòstics meteorològics de més de 4000 aeroports (METAR i TAF).

Les estacions disponibles són els punts grocs i vermells al mapa.

Posi el ratolí al punt desitjat per veure el nom de l'estació.

Feu clic per veure les observacions i els pronòstics meteorològics.

Per canviar el mapa: feu clic els botons verds amb una creu de color negre per apropar; al botó verd amb un guió per allunyar la imatge; o en les fletxes verdes per a mapes adjacents.


METAR-TAF: